sensor_id;sensor_type;location;lat;lon;timestamp;P1;durP1;ratioP1;P2;durP2;ratioP2
53263;SDS011;39153;52.680;6.172;2022-12-26T00:01:39;126.07;;;28.48;;
53263;SDS011;39153;52.680;6.172;2022-12-26T00:04:07;116.18;;;27.75;;
53263;SDS011;39153;52.680;6.172;2022-12-26T00:06:33;125.68;;;28.80;;
53263;SDS011;39153;52.680;6.172;2022-12-26T00:09:00;103.35;;;27.83;;
53263;SDS011;39153;52.680;6.172;2022-12-26T00:11:27;111.88;;;29.65;;
53263;SDS011;39153;52.680;6.172;2022-12-26T00:13:57;107.47;;;27.85;;
53263;SDS011;39153;52.680;6.172;2022-12-26T00:16:28;103.47;;;27.40;;
53263;SDS011;39153;52.680;6.172;2022-12-26T00:18:54;110.72;;;28.10;;
53263;SDS011;39153;52.680;6.172;2022-12-26T00:21:20;81.55;;;25.10;;
53263;SDS011;39153;52.680;6.172;2022-12-26T00:23:48;125.03;;;28.58;;
53263;SDS011;39153;52.680;6.172;2022-12-26T00:26:18;124.30;;;28.73;;
53263;SDS011;39153;52.680;6.172;2022-12-26T00:28:45;126.40;;;29.05;;
53263;SDS011;39153;52.680;6.172;2022-12-26T00:31:13;121.28;;;28.90;;
53263;SDS011;39153;52.680;6.172;2022-12-26T00:33:43;114.47;;;28.95;;
53263;SDS011;39153;52.680;6.172;2022-12-26T00:36:09;124.82;;;27.92;;
53263;SDS011;39153;52.680;6.172;2022-12-26T00:38:37;144.30;;;31.95;;
53263;SDS011;39153;52.680;6.172;2022-12-26T00:41:04;133.65;;;30.10;;
53263;SDS011;39153;52.680;6.172;2022-12-26T00:43:31;125.38;;;30.00;;
53263;SDS011;39153;52.680;6.172;2022-12-26T00:45:57;128.48;;;30.85;;
53263;SDS011;39153;52.680;6.172;2022-12-26T00:48:23;136.50;;;31.33;;
53263;SDS011;39153;52.680;6.172;2022-12-26T00:50:49;150.60;;;30.42;;
53263;SDS011;39153;52.680;6.172;2022-12-26T00:53:15;153.15;;;32.90;;
53263;SDS011;39153;52.680;6.172;2022-12-26T00:55:41;112.85;;;29.17;;
53263;SDS011;39153;52.680;6.172;2022-12-26T00:58:06;146.35;;;32.88;;
53263;SDS011;39153;52.680;6.172;2022-12-26T01:00:32;122.32;;;31.75;;
53263;SDS011;39153;52.680;6.172;2022-12-26T01:02:58;129.05;;;33.05;;
53263;SDS011;39153;52.680;6.172;2022-12-26T01:05:24;134.25;;;34.22;;
53263;SDS011;39153;52.680;6.172;2022-12-26T01:07:50;121.82;;;33.60;;
53263;SDS011;39153;52.680;6.172;2022-12-26T01:10:16;114.07;;;33.33;;
53263;SDS011;39153;52.680;6.172;2022-12-26T01:12:42;110.07;;;33.90;;
53263;SDS011;39153;52.680;6.172;2022-12-26T01:15:08;89.30;;;31.27;;
53263;SDS011;39153;52.680;6.172;2022-12-26T01:17:34;92.47;;;30.95;;
53263;SDS011;39153;52.680;6.172;2022-12-26T01:20:00;90.80;;;29.73;;
53263;SDS011;39153;52.680;6.172;2022-12-26T01:22:26;77.28;;;28.40;;
53263;SDS011;39153;52.680;6.172;2022-12-26T01:24:53;87.32;;;28.98;;
53263;SDS011;39153;52.680;6.172;2022-12-26T01:27:22;77.43;;;28.45;;
53263;SDS011;39153;52.680;6.172;2022-12-26T01:29:49;82.75;;;30.40;;
53263;SDS011;39153;52.680;6.172;2022-12-26T01:32:17;90.93;;;29.92;;
53263;SDS011;39153;52.680;6.172;2022-12-26T01:34:43;106.45;;;30.73;;
53263;SDS011;39153;52.680;6.172;2022-12-26T01:37:09;82.53;;;29.27;;
53263;SDS011;39153;52.680;6.172;2022-12-26T01:39:37;88.10;;;32.42;;
53263;SDS011;39153;52.680;6.172;2022-12-26T01:42:08;105.95;;;32.97;;
53263;SDS011;39153;52.680;6.172;2022-12-26T01:47:50;82.47;;;30.30;;
53263;SDS011;39153;52.680;6.172;2022-12-26T01:53:17;84.00;;;30.48;;
53263;SDS011;39153;52.680;6.172;2022-12-26T01:55:59;84.22;;;29.85;;
53263;SDS011;39153;52.680;6.172;2022-12-26T01:58:30;102.25;;;32.67;;
53263;SDS011;39153;52.680;6.172;2022-12-26T02:01:00;104.95;;;35.28;;
53263;SDS011;39153;52.680;6.172;2022-12-26T02:03:28;91.10;;;33.58;;
53263;SDS011;39153;52.680;6.172;2022-12-26T02:06:13;106.72;;;34.33;;
53263;SDS011;39153;52.680;6.172;2022-12-26T02:08:40;89.30;;;32.03;;
53263;SDS011;39153;52.680;6.172;2022-12-26T02:11:15;105.90;;;35.72;;
53263;SDS011;39153;52.680;6.172;2022-12-26T02:13:48;110.13;;;37.00;;
53263;SDS011;39153;52.680;6.172;2022-12-26T02:16:15;116.03;;;36.38;;
53263;SDS011;39153;52.680;6.172;2022-12-26T02:18:42;112.43;;;36.20;;
53263;SDS011;39153;52.680;6.172;2022-12-26T02:34:37;124.10;;;38.88;;
53263;SDS011;39153;52.680;6.172;2022-12-26T02:40:19;118.72;;;38.72;;
53263;SDS011;39153;52.680;6.172;2022-12-26T02:43:08;120.70;;;40.70;;
53263;SDS011;39153;52.680;6.172;2022-12-26T02:51:32;118.78;;;39.55;;
53263;SDS011;39153;52.680;6.172;2022-12-26T02:54:32;116.07;;;39.67;;
53263;SDS011;39153;52.680;6.172;2022-12-26T02:57:58;121.03;;;39.05;;
53263;SDS011;39153;52.680;6.172;2022-12-26T03:00:47;109.85;;;38.75;;
53263;SDS011;39153;52.680;6.172;2022-12-26T03:03:38;114.57;;;39.10;;
53263;SDS011;39153;52.680;6.172;2022-12-26T03:06:25;109.15;;;38.75;;
53263;SDS011;39153;52.680;6.172;2022-12-26T03:09:23;105.10;;;37.85;;
53263;SDS011;39153;52.680;6.172;2022-12-26T03:15:03;99.90;;;37.65;;
53263;SDS011;39153;52.680;6.172;2022-12-26T03:17:40;98.70;;;37.53;;
53263;SDS011;39153;52.680;6.172;2022-12-26T03:23:08;106.60;;;37.67;;
53263;SDS011;39153;52.680;6.172;2022-12-26T03:25:44;99.22;;;37.58;;
53263;SDS011;39153;52.680;6.172;2022-12-26T03:28:30;91.57;;;35.72;;
53263;SDS011;39153;52.680;6.172;2022-12-26T03:30:57;90.93;;;35.25;;
53263;SDS011;39153;52.680;6.172;2022-12-26T03:33:27;92.22;;;34.95;;
53263;SDS011;39153;52.680;6.172;2022-12-26T03:41:47;79.78;;;33.28;;
53263;SDS011;39153;52.680;6.172;2022-12-26T03:44:47;76.47;;;32.13;;
53263;SDS011;39153;52.680;6.172;2022-12-26T03:50:59;82.72;;;33.50;;
53263;SDS011;39153;52.680;6.172;2022-12-26T03:53:56;86.47;;;34.05;;
53263;SDS011;39153;52.680;6.172;2022-12-26T03:56:51;79.68;;;33.38;;
53263;SDS011;39153;52.680;6.172;2022-12-26T03:59:43;76.43;;;32.13;;
53263;SDS011;39153;52.680;6.172;2022-12-26T04:02:33;78.95;;;33.22;;
53263;SDS011;39153;52.680;6.172;2022-12-26T04:05:20;70.03;;;30.23;;
53263;SDS011;39153;52.680;6.172;2022-12-26T04:08:09;75.22;;;32.95;;
53263;SDS011;39153;52.680;6.172;2022-12-26T04:10:59;88.47;;;33.67;;
53263;SDS011;39153;52.680;6.172;2022-12-26T04:14:03;73.93;;;31.88;;
53263;SDS011;39153;52.680;6.172;2022-12-26T04:16:54;76.28;;;31.55;;
53263;SDS011;39153;52.680;6.172;2022-12-26T04:20:11;67.22;;;30.92;;
53263;SDS011;39153;52.680;6.172;2022-12-26T04:25:44;69.97;;;30.77;;
53263;SDS011;39153;52.680;6.172;2022-12-26T04:34:27;77.88;;;33.60;;
53263;SDS011;39153;52.680;6.172;2022-12-26T04:37:22;80.45;;;33.13;;
53263;SDS011;39153;52.680;6.172;2022-12-26T04:40:10;71.50;;;32.80;;
53263;SDS011;39153;52.680;6.172;2022-12-26T04:43:03;70.28;;;32.83;;
53263;SDS011;39153;52.680;6.172;2022-12-26T04:45:49;66.13;;;31.77;;
53263;SDS011;39153;52.680;6.172;2022-12-26T04:48:15;65.75;;;31.90;;
53263;SDS011;39153;52.680;6.172;2022-12-26T04:51:00;70.25;;;33.42;;
53263;SDS011;39153;52.680;6.172;2022-12-26T04:53:25;66.57;;;31.80;;
53263;SDS011;39153;52.680;6.172;2022-12-26T04:55:51;69.70;;;33.08;;
53263;SDS011;39153;52.680;6.172;2022-12-26T04:58:17;65.00;;;32.78;;
53263;SDS011;39153;52.680;6.172;2022-12-26T05:00:42;62.40;;;31.77;;
53263;SDS011;39153;52.680;6.172;2022-12-26T05:03:11;57.35;;;30.42;;
53263;SDS011;39153;52.680;6.172;2022-12-26T05:05:56;67.93;;;32.33;;
53263;SDS011;39153;52.680;6.172;2022-12-26T05:08:41;67.80;;;33.30;;
53263;SDS011;39153;52.680;6.172;2022-12-26T05:11:28;64.40;;;31.15;;
53263;SDS011;39153;52.680;6.172;2022-12-26T05:13:55;62.00;;;31.13;;
53263;SDS011;39153;52.680;6.172;2022-12-26T05:16:22;61.58;;;31.40;;
53263;SDS011;39153;52.680;6.172;2022-12-26T05:19:11;64.57;;;33.00;;
53263;SDS011;39153;52.680;6.172;2022-12-26T05:21:57;55.63;;;30.92;;
53263;SDS011;39153;52.680;6.172;2022-12-26T05:24:41;62.30;;;32.00;;
53263;SDS011;39153;52.680;6.172;2022-12-26T05:27:29;56.40;;;31.05;;
53263;SDS011;39153;52.680;6.172;2022-12-26T05:30:23;58.25;;;30.58;;
53263;SDS011;39153;52.680;6.172;2022-12-26T05:32:49;52.42;;;29.50;;
53263;SDS011;39153;52.680;6.172;2022-12-26T05:35:34;52.22;;;29.17;;
53263;SDS011;39153;52.680;6.172;2022-12-26T05:38:00;55.45;;;29.67;;
53263;SDS011;39153;52.680;6.172;2022-12-26T05:40:26;52.70;;;28.95;;
53263;SDS011;39153;52.680;6.172;2022-12-26T05:42:52;48.67;;;28.63;;
53263;SDS011;39153;52.680;6.172;2022-12-26T05:45:18;46.55;;;27.77;;
53263;SDS011;39153;52.680;6.172;2022-12-26T05:47:43;45.45;;;26.35;;
53263;SDS011;39153;52.680;6.172;2022-12-26T05:50:09;44.22;;;26.60;;
53263;SDS011;39153;52.680;6.172;2022-12-26T05:52:35;43.15;;;25.90;;
53263;SDS011;39153;52.680;6.172;2022-12-26T05:55:00;45.50;;;27.85;;
53263;SDS011;39153;52.680;6.172;2022-12-26T05:57:26;45.58;;;26.75;;
53263;SDS011;39153;52.680;6.172;2022-12-26T05:59:52;42.17;;;26.33;;
53263;SDS011;39153;52.680;6.172;2022-12-26T06:02:17;41.85;;;25.33;;
53263;SDS011;39153;52.680;6.172;2022-12-26T06:04:43;42.15;;;25.50;;
53263;SDS011;39153;52.680;6.172;2022-12-26T06:07:09;41.72;;;24.60;;
53263;SDS011;39153;52.680;6.172;2022-12-26T06:09:35;38.60;;;23.45;;
53263;SDS011;39153;52.680;6.172;2022-12-26T06:12:00;39.88;;;24.25;;
53263;SDS011;39153;52.680;6.172;2022-12-26T06:14:26;38.42;;;23.92;;
53263;SDS011;39153;52.680;6.172;2022-12-26T06:16:52;37.08;;;23.42;;
53263;SDS011;39153;52.680;6.172;2022-12-26T06:19:17;34.85;;;22.58;;
53263;SDS011;39153;52.680;6.172;2022-12-26T06:21:43;35.50;;;23.58;;
53263;SDS011;39153;52.680;6.172;2022-12-26T06:24:09;37.67;;;23.63;;
53263;SDS011;39153;52.680;6.172;2022-12-26T06:26:34;38.50;;;22.33;;
53263;SDS011;39153;52.680;6.172;2022-12-26T06:29:01;33.30;;;22.20;;
53263;SDS011;39153;52.680;6.172;2022-12-26T06:31:27;34.97;;;21.02;;
53263;SDS011;39153;52.680;6.172;2022-12-26T06:33:54;32.75;;;20.55;;
53263;SDS011;39153;52.680;6.172;2022-12-26T06:36:22;30.95;;;19.88;;
53263;SDS011;39153;52.680;6.172;2022-12-26T06:38:49;30.45;;;19.92;;
53263;SDS011;39153;52.680;6.172;2022-12-26T06:41:17;30.80;;;20.05;;
53263;SDS011;39153;52.680;6.172;2022-12-26T06:43:44;32.67;;;18.65;;
53263;SDS011;39153;52.680;6.172;2022-12-26T06:46:11;32.10;;;19.48;;
53263;SDS011;39153;52.680;6.172;2022-12-26T06:48:40;33.22;;;18.92;;
53263;SDS011;39153;52.680;6.172;2022-12-26T06:51:07;27.02;;;17.38;;
53263;SDS011;39153;52.680;6.172;2022-12-26T06:53:37;32.10;;;20.15;;
53263;SDS011;39153;52.680;6.172;2022-12-26T06:56:08;28.10;;;19.38;;
53263;SDS011;39153;52.680;6.172;2022-12-26T06:58:35;28.55;;;19.13;;
53263;SDS011;39153;52.680;6.172;2022-12-26T07:01:05;29.80;;;19.63;;
53263;SDS011;39153;52.680;6.172;2022-12-26T07:03:32;37.05;;;21.48;;
53263;SDS011;39153;52.680;6.172;2022-12-26T07:06:32;32.97;;;21.27;;
53263;SDS011;39153;52.680;6.172;2022-12-26T07:08:53;32.55;;;20.48;;
53263;SDS011;39153;52.680;6.172;2022-12-26T07:11:22;30.52;;;20.15;;
53263;SDS011;39153;52.680;6.172;2022-12-26T07:13:49;30.63;;;20.55;;
53263;SDS011;39153;52.680;6.172;2022-12-26T07:16:15;33.15;;;21.42;;
53263;SDS011;39153;52.680;6.172;2022-12-26T07:18:41;29.80;;;20.98;;
53263;SDS011;39153;52.680;6.172;2022-12-26T07:21:07;34.92;;;21.45;;
53263;SDS011;39153;52.680;6.172;2022-12-26T07:23:34;32.17;;;21.05;;
53263;SDS011;39153;52.680;6.172;2022-12-26T07:26:00;34.45;;;21.52;;
53263;SDS011;39153;52.680;6.172;2022-12-26T07:28:26;37.33;;;21.63;;
53263;SDS011;39153;52.680;6.172;2022-12-26T07:30:52;33.05;;;21.60;;
53263;SDS011;39153;52.680;6.172;2022-12-26T07:33:18;34.10;;;21.45;;
53263;SDS011;39153;52.680;6.172;2022-12-26T07:35:43;33.58;;;20.38;;
53263;SDS011;39153;52.680;6.172;2022-12-26T07:38:10;31.90;;;20.13;;
53263;SDS011;39153;52.680;6.172;2022-12-26T07:40:36;31.75;;;19.42;;
53263;SDS011;39153;52.680;6.172;2022-12-26T07:43:02;32.00;;;19.85;;
53263;SDS011;39153;52.680;6.172;2022-12-26T07:45:28;30.30;;;19.27;;
53263;SDS011;39153;52.680;6.172;2022-12-26T07:47:55;28.77;;;18.48;;
53263;SDS011;39153;52.680;6.172;2022-12-26T07:50:22;29.20;;;18.58;;
53263;SDS011;39153;52.680;6.172;2022-12-26T07:52:49;27.40;;;17.38;;
53263;SDS011;39153;52.680;6.172;2022-12-26T07:55:14;29.33;;;17.92;;
53263;SDS011;39153;52.680;6.172;2022-12-26T07:57:40;26.73;;;16.90;;
53263;SDS011;39153;52.680;6.172;2022-12-26T08:00:06;26.40;;;17.02;;
53263;SDS011;39153;52.680;6.172;2022-12-26T08:02:33;23.40;;;15.60;;
53263;SDS011;39153;52.680;6.172;2022-12-26T08:04:58;22.52;;;14.95;;
53263;SDS011;39153;52.680;6.172;2022-12-26T08:07:24;24.17;;;15.65;;
53263;SDS011;39153;52.680;6.172;2022-12-26T08:09:50;22.80;;;14.48;;
53263;SDS011;39153;52.680;6.172;2022-12-26T08:12:15;20.80;;;14.00;;
53263;SDS011;39153;52.680;6.172;2022-12-26T08:14:45;23.15;;;14.07;;
53263;SDS011;39153;52.680;6.172;2022-12-26T08:17:11;21.42;;;12.93;;
53263;SDS011;39153;52.680;6.172;2022-12-26T08:19:37;19.23;;;11.48;;
53263;SDS011;39153;52.680;6.172;2022-12-26T08:22:03;20.00;;;12.35;;
53263;SDS011;39153;52.680;6.172;2022-12-26T08:24:29;17.52;;;11.20;;
53263;SDS011;39153;52.680;6.172;2022-12-26T08:26:55;21.17;;;11.88;;
53263;SDS011;39153;52.680;6.172;2022-12-26T08:29:21;18.33;;;10.73;;
53263;SDS011;39153;52.680;6.172;2022-12-26T08:31:47;17.00;;;9.68;;
53263;SDS011;39153;52.680;6.172;2022-12-26T08:34:12;15.75;;;9.43;;
53263;SDS011;39153;52.680;6.172;2022-12-26T08:36:38;16.98;;;9.85;;
53263;SDS011;39153;52.680;6.172;2022-12-26T08:39:05;18.70;;;10.07;;
53263;SDS011;39153;52.680;6.172;2022-12-26T08:41:30;19.17;;;9.95;;
53263;SDS011;39153;52.680;6.172;2022-12-26T08:43:56;13.95;;;9.20;;
53263;SDS011;39153;52.680;6.172;2022-12-26T08:46:22;15.63;;;8.70;;
53263;SDS011;39153;52.680;6.172;2022-12-26T08:48:48;15.82;;;8.98;;
53263;SDS011;39153;52.680;6.172;2022-12-26T08:51:15;16.45;;;8.55;;
53263;SDS011;39153;52.680;6.172;2022-12-26T08:53:45;15.38;;;8.73;;
53263;SDS011;39153;52.680;6.172;2022-12-26T08:56:14;16.98;;;8.40;;
53263;SDS011;39153;52.680;6.172;2022-12-26T08:58:41;14.13;;;9.13;;
53263;SDS011;39153;52.680;6.172;2022-12-26T09:01:11;15.63;;;8.93;;
53263;SDS011;39153;52.680;6.172;2022-12-26T09:03:38;15.55;;;8.77;;
53263;SDS011;39153;52.680;6.172;2022-12-26T09:06:04;17.20;;;9.38;;
53263;SDS011;39153;52.680;6.172;2022-12-26T09:08:30;13.90;;;9.13;;
53263;SDS011;39153;52.680;6.172;2022-12-26T09:11:18;14.38;;;8.75;;
53263;SDS011;39153;52.680;6.172;2022-12-26T09:13:46;14.32;;;8.73;;
53263;SDS011;39153;52.680;6.172;2022-12-26T09:16:16;12.75;;;8.27;;
53263;SDS011;39153;52.680;6.172;2022-12-26T09:18:45;13.07;;;8.63;;
53263;SDS011;39153;52.680;6.172;2022-12-26T09:21:12;14.88;;;7.82;;
53263;SDS011;39153;52.680;6.172;2022-12-26T09:23:39;12.10;;;7.72;;
53263;SDS011;39153;52.680;6.172;2022-12-26T09:26:07;14.32;;;6.45;;
53263;SDS011;39153;52.680;6.172;2022-12-26T09:28:34;11.07;;;6.30;;
53263;SDS011;39153;52.680;6.172;2022-12-26T09:31:01;11.73;;;6.15;;
53263;SDS011;39153;52.680;6.172;2022-12-26T09:33:32;11.02;;;5.63;;
53263;SDS011;39153;52.680;6.172;2022-12-26T09:36:03;10.52;;;4.93;;
53263;SDS011;39153;52.680;6.172;2022-12-26T09:38:33;13.15;;;4.82;;
53263;SDS011;39153;52.680;6.172;2022-12-26T09:43:58;10.82;;;5.07;;
53263;SDS011;39153;52.680;6.172;2022-12-26T09:49:31;8.90;;;3.83;;
53263;SDS011;39153;52.680;6.172;2022-12-26T09:52:03;13.65;;;3.40;;
53263;SDS011;39153;52.680;6.172;2022-12-26T09:54:42;15.95;;;3.58;;
53263;SDS011;39153;52.680;6.172;2022-12-26T09:57:14;18.42;;;3.45;;
53263;SDS011;39153;52.680;6.172;2022-12-26T09:59:47;18.85;;;3.10;;
53263;SDS011;39153;52.680;6.172;2022-12-26T10:04:44;15.30;;;2.38;;
53263;SDS011;39153;52.680;6.172;2022-12-26T10:10:09;12.20;;;2.03;;
53263;SDS011;39153;52.680;6.172;2022-12-26T10:15:41;16.15;;;2.65;;
53263;SDS011;39153;52.680;6.172;2022-12-26T10:23:43;11.10;;;1.65;;
53263;SDS011;39153;52.680;6.172;2022-12-26T10:26:14;12.88;;;2.47;;
53263;SDS011;39153;52.680;6.172;2022-12-26T10:28:43;11.93;;;1.95;;
53263;SDS011;39153;52.680;6.172;2022-12-26T10:31:21;12.00;;;1.60;;
53263;SDS011;39153;52.680;6.172;2022-12-26T10:36:52;9.68;;;1.85;;
53263;SDS011;39153;52.680;6.172;2022-12-26T10:41:54;9.00;;;1.50;;
53263;SDS011;39153;52.680;6.172;2022-12-26T10:44:23;10.75;;;1.20;;
53263;SDS011;39153;52.680;6.172;2022-12-26T10:46:55;9.77;;;1.90;;
53263;SDS011;39153;52.680;6.172;2022-12-26T10:49:30;12.52;;;1.88;;
53263;SDS011;39153;52.680;6.172;2022-12-26T10:51:57;11.80;;;1.80;;
53263;SDS011;39153;52.680;6.172;2022-12-26T10:54:25;11.23;;;1.77;;
53263;SDS011;39153;52.680;6.172;2022-12-26T10:56:53;10.13;;;1.70;;
53263;SDS011;39153;52.680;6.172;2022-12-26T10:59:22;9.85;;;1.42;;
53263;SDS011;39153;52.680;6.172;2022-12-26T11:02:09;12.07;;;1.77;;
53263;SDS011;39153;52.680;6.172;2022-12-26T11:05:09;11.23;;;1.67;;
53263;SDS011;39153;52.680;6.172;2022-12-26T11:07:49;9.43;;;1.58;;
53263;SDS011;39153;52.680;6.172;2022-12-26T11:10:19;12.10;;;2.33;;
53263;SDS011;39153;52.680;6.172;2022-12-26T11:12:49;10.27;;;2.00;;
53263;SDS011;39153;52.680;6.172;2022-12-26T11:20:51;12.65;;;2.03;;
53263;SDS011;39153;52.680;6.172;2022-12-26T11:25:46;14.80;;;1.83;;
53263;SDS011;39153;52.680;6.172;2022-12-26T11:28:24;7.50;;;1.30;;
53263;SDS011;39153;52.680;6.172;2022-12-26T11:30:58;10.90;;;1.60;;
53263;SDS011;39153;52.680;6.172;2022-12-26T11:33:29;12.75;;;1.60;;
53263;SDS011;39153;52.680;6.172;2022-12-26T11:38:58;9.90;;;1.70;;
53263;SDS011;39153;52.680;6.172;2022-12-26T11:44:29;11.27;;;1.63;;
53263;SDS011;39153;52.680;6.172;2022-12-26T11:46:57;15.75;;;1.98;;
53263;SDS011;39153;52.680;6.172;2022-12-26T11:49:25;14.02;;;1.70;;
53263;SDS011;39153;52.680;6.172;2022-12-26T11:52:00;10.77;;;2.50;;
53263;SDS011;39153;52.680;6.172;2022-12-26T11:54:29;10.93;;;2.00;;
53263;SDS011;39153;52.680;6.172;2022-12-26T11:59:39;9.07;;;1.90;;
53263;SDS011;39153;52.680;6.172;2022-12-26T12:02:24;10.77;;;2.03;;
53263;SDS011;39153;52.680;6.172;2022-12-26T12:04:59;10.75;;;1.50;;
53263;SDS011;39153;52.680;6.172;2022-12-26T12:07:42;12.48;;;2.13;;
53263;SDS011;39153;52.680;6.172;2022-12-26T12:34:41;15.45;;;2.20;;
53263;SDS011;39153;52.680;6.172;2022-12-26T12:42:52;14.25;;;2.28;;
53263;SDS011;39153;52.680;6.172;2022-12-26T12:45:36;13.65;;;2.03;;
53263;SDS011;39153;52.680;6.172;2022-12-26T12:48:24;10.63;;;1.67;;
53263;SDS011;39153;52.680;6.172;2022-12-26T13:02:04;10.30;;;2.13;;
53263;SDS011;39153;52.680;6.172;2022-12-26T13:04:54;16.67;;;2.05;;
53263;SDS011;39153;52.680;6.172;2022-12-26T13:07:44;13.55;;;3.38;;
53263;SDS011;39153;52.680;6.172;2022-12-26T13:10:26;11.63;;;1.98;;
53263;SDS011;39153;52.680;6.172;2022-12-26T13:12:58;14.98;;;2.25;;
53263;SDS011;39153;52.680;6.172;2022-12-26T13:15:39;13.70;;;2.28;;
53263;SDS011;39153;52.680;6.172;2022-12-26T13:18:13;9.45;;;2.03;;
53263;SDS011;39153;52.680;6.172;2022-12-26T13:20:48;12.77;;;2.10;;
53263;SDS011;39153;52.680;6.172;2022-12-26T13:26:06;14.23;;;3.17;;
53263;SDS011;39153;52.680;6.172;2022-12-26T13:28:35;14.90;;;2.47;;
53263;SDS011;39153;52.680;6.172;2022-12-26T13:31:08;14.57;;;2.30;;
53263;SDS011;39153;52.680;6.172;2022-12-26T13:33:33;12.13;;;1.88;;
53263;SDS011;39153;52.680;6.172;2022-12-26T13:36:03;11.45;;;2.08;;
53263;SDS011;39153;52.680;6.172;2022-12-26T13:41:19;11.70;;;2.20;;
53263;SDS011;39153;52.680;6.172;2022-12-26T14:21:58;23.05;;;4.38;;
53263;SDS011;39153;52.680;6.172;2022-12-26T14:35:27;11.10;;;2.13;;
53263;SDS011;39153;52.680;6.172;2022-12-26T14:40:58;20.92;;;8.15;;
53263;SDS011;39153;52.680;6.172;2022-12-26T14:46:03;44.30;;;20.13;;
53263;SDS011;39153;52.680;6.172;2022-12-26T14:48:51;22.80;;;5.95;;
53263;SDS011;39153;52.680;6.172;2022-12-26T14:53:45;14.43;;;2.75;;
53263;SDS011;39153;52.680;6.172;2022-12-26T14:56:35;13.23;;;3.13;;
53263;SDS011;39153;52.680;6.172;2022-12-26T15:01:58;11.27;;;2.10;;
53263;SDS011;39153;52.680;6.172;2022-12-26T15:19:21;14.95;;;1.90;;
53263;SDS011;39153;52.680;6.172;2022-12-26T15:33:31;13.27;;;2.22;;
53263;SDS011;39153;52.680;6.172;2022-12-26T15:36:05;12.57;;;1.80;;
53263;SDS011;39153;52.680;6.172;2022-12-26T15:38:43;14.20;;;1.85;;
53263;SDS011;39153;52.680;6.172;2022-12-26T15:41:36;9.40;;;1.65;;
53263;SDS011;39153;52.680;6.172;2022-12-26T15:46:41;12.38;;;1.73;;
53263;SDS011;39153;52.680;6.172;2022-12-26T16:00:50;12.75;;;1.83;;
53263;SDS011;39153;52.680;6.172;2022-12-26T16:05:54;10.32;;;1.60;;
53263;SDS011;39153;52.680;6.172;2022-12-26T16:08:37;10.27;;;1.70;;
53263;SDS011;39153;52.680;6.172;2022-12-26T16:11:28;9.18;;;1.83;;
53263;SDS011;39153;52.680;6.172;2022-12-26T16:14:09;10.60;;;1.63;;
53263;SDS011;39153;52.680;6.172;2022-12-26T16:16:48;12.90;;;1.98;;
53263;SDS011;39153;52.680;6.172;2022-12-26T16:19:18;10.27;;;2.08;;
53263;SDS011;39153;52.680;6.172;2022-12-26T16:21:52;11.05;;;2.28;;
53263;SDS011;39153;52.680;6.172;2022-12-26T16:24:46;12.85;;;1.67;;
53263;SDS011;39153;52.680;6.172;2022-12-26T16:27:19;9.88;;;1.70;;
53263;SDS011;39153;52.680;6.172;2022-12-26T16:30:00;11.30;;;2.60;;
53263;SDS011;39153;52.680;6.172;2022-12-26T16:32:38;9.02;;;1.83;;
53263;SDS011;39153;52.680;6.172;2022-12-26T16:35:06;9.43;;;1.55;;
53263;SDS011;39153;52.680;6.172;2022-12-26T16:37:40;7.95;;;1.77;;
53263;SDS011;39153;52.680;6.172;2022-12-26T16:40:13;10.65;;;1.50;;
53263;SDS011;39153;52.680;6.172;2022-12-26T16:45:20;9.43;;;1.42;;
53263;SDS011;39153;52.680;6.172;2022-12-26T16:47:47;7.50;;;1.33;;
53263;SDS011;39153;52.680;6.172;2022-12-26T16:50:18;7.40;;;1.10;;
53263;SDS011;39153;52.680;6.172;2022-12-26T16:52:45;9.10;;;1.75;;
53263;SDS011;39153;52.680;6.172;2022-12-26T17:00:44;9.80;;;1.40;;
53263;SDS011;39153;52.680;6.172;2022-12-26T17:03:16;11.57;;;1.73;;
53263;SDS011;39153;52.680;6.172;2022-12-26T17:05:50;11.00;;;1.38;;
53263;SDS011;39153;52.680;6.172;2022-12-26T17:08:16;11.20;;;1.60;;
53263;SDS011;39153;52.680;6.172;2022-12-26T17:10:45;9.52;;;1.15;;
53263;SDS011;39153;52.680;6.172;2022-12-26T17:13:15;11.98;;;1.10;;
53263;SDS011;39153;52.680;6.172;2022-12-26T17:15:49;9.10;;;1.30;;
53263;SDS011;39153;52.680;6.172;2022-12-26T17:20:54;6.30;;;1.20;;
53263;SDS011;39153;52.680;6.172;2022-12-26T17:23:37;10.23;;;1.45;;
53263;SDS011;39153;52.680;6.172;2022-12-26T17:26:15;8.00;;;2.65;;
53263;SDS011;39153;52.680;6.172;2022-12-26T17:28:49;7.63;;;1.90;;
53263;SDS011;39153;52.680;6.172;2022-12-26T17:31:17;12.68;;;1.88;;
53263;SDS011;39153;52.680;6.172;2022-12-26T17:33:45;9.55;;;3.33;;
53263;SDS011;39153;52.680;6.172;2022-12-26T17:36:12;9.80;;;3.22;;
53263;SDS011;39153;52.680;6.172;2022-12-26T17:38:40;10.07;;;2.45;;
53263;SDS011;39153;52.680;6.172;2022-12-26T17:41:08;13.63;;;2.72;;
53263;SDS011;39153;52.680;6.172;2022-12-26T17:43:39;7.55;;;1.70;;
53263;SDS011;39153;52.680;6.172;2022-12-26T17:46:06;14.02;;;2.05;;
53263;SDS011;39153;52.680;6.172;2022-12-26T17:48:37;11.45;;;2.13;;
53263;SDS011;39153;52.680;6.172;2022-12-26T17:51:04;20.17;;;8.00;;
53263;SDS011;39153;52.680;6.172;2022-12-26T17:53:32;15.05;;;6.90;;
53263;SDS011;39153;52.680;6.172;2022-12-26T17:56:00;18.83;;;3.42;;
53263;SDS011;39153;52.680;6.172;2022-12-26T17:58:28;12.35;;;3.10;;
53263;SDS011;39153;52.680;6.172;2022-12-26T18:00:55;12.15;;;2.45;;
53263;SDS011;39153;52.680;6.172;2022-12-26T18:03:21;12.48;;;2.47;;
53263;SDS011;39153;52.680;6.172;2022-12-26T18:05:47;11.15;;;2.92;;
53263;SDS011;39153;52.680;6.172;2022-12-26T18:08:35;11.32;;;3.00;;
53263;SDS011;39153;52.680;6.172;2022-12-26T18:11:01;11.55;;;2.70;;
53263;SDS011;39153;52.680;6.172;2022-12-26T18:13:31;16.58;;;3.80;;
53263;SDS011;39153;52.680;6.172;2022-12-26T18:15:57;39.60;;;18.77;;
53263;SDS011;39153;52.680;6.172;2022-12-26T18:18:25;17.05;;;7.35;;
53263;SDS011;39153;52.680;6.172;2022-12-26T18:20:56;15.55;;;3.92;;
53263;SDS011;39153;52.680;6.172;2022-12-26T18:23:22;10.55;;;3.33;;
53263;SDS011;39153;52.680;6.172;2022-12-26T18:25:47;14.48;;;3.45;;
53263;SDS011;39153;52.680;6.172;2022-12-26T18:28:14;8.20;;;2.70;;
53263;SDS011;39153;52.680;6.172;2022-12-26T18:30:41;11.50;;;2.83;;
53263;SDS011;39153;52.680;6.172;2022-12-26T18:33:08;15.48;;;3.55;;
53263;SDS011;39153;52.680;6.172;2022-12-26T18:35:35;12.50;;;2.90;;
53263;SDS011;39153;52.680;6.172;2022-12-26T18:38:06;15.88;;;6.22;;
53263;SDS011;39153;52.680;6.172;2022-12-26T18:40:36;9.43;;;3.00;;
53263;SDS011;39153;52.680;6.172;2022-12-26T18:43:04;7.00;;;2.13;;
53263;SDS011;39153;52.680;6.172;2022-12-26T18:45:31;12.50;;;2.28;;
53263;SDS011;39153;52.680;6.172;2022-12-26T18:47:58;8.38;;;1.92;;
53263;SDS011;39153;52.680;6.172;2022-12-26T18:50:25;9.43;;;2.83;;
53263;SDS011;39153;52.680;6.172;2022-12-26T18:52:52;8.35;;;2.20;;
53263;SDS011;39153;52.680;6.172;2022-12-26T18:55:18;10.73;;;2.00;;
53263;SDS011;39153;52.680;6.172;2022-12-26T18:57:44;11.57;;;3.05;;
53263;SDS011;39153;52.680;6.172;2022-12-26T19:00:11;9.13;;;2.55;;
53263;SDS011;39153;52.680;6.172;2022-12-26T19:02:39;12.85;;;2.80;;
53263;SDS011;39153;52.680;6.172;2022-12-26T19:05:05;11.57;;;2.85;;
53263;SDS011;39153;52.680;6.172;2022-12-26T19:07:31;11.18;;;3.38;;
53263;SDS011;39153;52.680;6.172;2022-12-26T19:09:57;17.80;;;3.50;;
53263;SDS011;39153;52.680;6.172;2022-12-26T19:12:25;10.50;;;3.47;;